sensor_id;sensor_type;location;lat;lon;timestamp;pressure;altitude;pressure_sealevel;temperature;humidity
12077;BME280;12420;42.676;23.262;2023-03-14T00:00:35;94766.84;;;3.87;83.50
12077;BME280;12420;42.676;23.262;2023-03-14T00:03:02;94667.53;;;3.25;83.79
12077;BME280;12420;42.676;23.262;2023-03-14T00:05:29;94766.06;;;3.86;84.16
12077;BME280;12420;42.676;23.262;2023-03-14T00:07:56;94660.94;;;2.96;85.19
12077;BME280;12420;42.676;23.262;2023-03-14T00:10:22;94781.81;;;3.71;85.15
12077;BME280;12420;42.676;23.262;2023-03-14T00:12:49;94770.38;;;3.73;85.86
12077;BME280;12420;42.676;23.262;2023-03-14T00:15:17;94589.03;;;2.70;85.60
12077;BME280;12420;42.676;23.262;2023-03-14T00:17:45;94750.75;;;3.74;84.93
12077;BME280;12420;42.676;23.262;2023-03-14T00:20:12;94730.75;;;3.47;84.42
12077;BME280;12420;42.676;23.262;2023-03-14T00:22:39;94688.56;;;3.34;84.95
12077;BME280;12420;42.676;23.262;2023-03-14T00:25:08;94652.00;;;2.96;84.36
12077;BME280;12420;42.676;23.262;2023-03-14T00:27:36;94755.81;;;3.81;83.79
12077;BME280;12420;42.676;23.262;2023-03-14T00:30:04;94671.09;;;3.31;83.94
12077;BME280;12420;42.676;23.262;2023-03-14T00:32:33;94706.78;;;3.22;85.23
12077;BME280;12420;42.676;23.262;2023-03-14T00:35:02;94655.53;;;3.02;85.45
12077;BME280;12420;42.676;23.262;2023-03-14T00:37:29;94656.56;;;3.04;86.48
12077;BME280;12420;42.676;23.262;2023-03-14T00:39:57;94682.66;;;2.85;87.82
12077;BME280;12420;42.676;23.262;2023-03-14T00:42:24;94703.66;;;3.29;87.96
12077;BME280;12420;42.676;23.262;2023-03-14T00:44:51;94720.53;;;3.28;88.38
12077;BME280;12420;42.676;23.262;2023-03-14T00:47:18;94669.66;;;2.80;88.33
12077;BME280;12420;42.676;23.262;2023-03-14T00:49:44;94690.13;;;3.05;89.27
12077;BME280;12420;42.676;23.262;2023-03-14T00:52:13;94579.03;;;2.67;88.58
12077;BME280;12420;42.676;23.262;2023-03-14T00:54:40;94697.63;;;3.25;88.97
12077;BME280;12420;42.676;23.262;2023-03-14T00:57:07;94603.34;;;2.29;89.56
12077;BME280;12420;42.676;23.262;2023-03-14T00:59:34;94634.28;;;2.41;90.97
12077;BME280;12420;42.676;23.262;2023-03-14T01:02:01;94728.56;;;3.31;91.47
12077;BME280;12420;42.676;23.262;2023-03-14T01:04:28;94610.72;;;2.58;91.26
12077;BME280;12420;42.676;23.262;2023-03-14T01:06:55;94749.41;;;3.29;92.26
12077;BME280;12420;42.676;23.262;2023-03-14T01:09:24;94709.72;;;2.83;93.13
12077;BME280;12420;42.676;23.262;2023-03-14T01:11:50;94698.47;;;3.31;93.37
12077;BME280;12420;42.676;23.262;2023-03-14T01:14:17;94698.19;;;3.29;90.84
12077;BME280;12420;42.676;23.262;2023-03-14T01:16:44;94709.47;;;3.01;91.16
12077;BME280;12420;42.676;23.262;2023-03-14T01:19:12;94554.94;;;2.30;89.76
12077;BME280;12420;42.676;23.262;2023-03-14T01:21:39;94578.03;;;2.49;89.14
12077;BME280;12420;42.676;23.262;2023-03-14T01:24:06;94586.75;;;2.33;90.31
12077;BME280;12420;42.676;23.262;2023-03-14T01:26:35;94580.75;;;2.14;89.86
12077;BME280;12420;42.676;23.262;2023-03-14T01:29:02;94676.94;;;3.03;88.41
12077;BME280;12420;42.676;23.262;2023-03-14T01:31:29;94520.00;;;1.84;87.46
12077;BME280;12420;42.676;23.262;2023-03-14T01:33:56;94670.81;;;3.09;87.73
12077;BME280;12420;42.676;23.262;2023-03-14T01:36:23;94674.19;;;2.83;88.26
12077;BME280;12420;42.676;23.262;2023-03-14T01:38:50;94664.34;;;2.41;88.16
12077;BME280;12420;42.676;23.262;2023-03-14T01:41:19;94628.94;;;2.82;89.41
12077;BME280;12420;42.676;23.262;2023-03-14T01:43:48;94623.19;;;2.80;87.69
12077;BME280;12420;42.676;23.262;2023-03-14T01:46:28;94666.66;;;3.13;86.92
12077;BME280;12420;42.676;23.262;2023-03-14T01:48:59;94636.34;;;2.96;88.30
12077;BME280;12420;42.676;23.262;2023-03-14T01:51:30;94673.63;;;3.35;88.51
12077;BME280;12420;42.676;23.262;2023-03-14T01:54:06;94661.78;;;3.43;84.87
12077;BME280;12420;42.676;23.262;2023-03-14T01:56:35;94694.09;;;3.39;84.40
12077;BME280;12420;42.676;23.262;2023-03-14T01:59:06;94637.78;;;3.12;84.72
12077;BME280;12420;42.676;23.262;2023-03-14T02:01:34;94641.09;;;2.81;85.62
12077;BME280;12420;42.676;23.262;2023-03-14T02:04:03;94570.47;;;2.59;84.88
12077;BME280;12420;42.676;23.262;2023-03-14T02:06:39;94655.09;;;3.24;84.99
12077;BME280;12420;42.676;23.262;2023-03-14T02:09:09;94552.91;;;2.45;84.63
12077;BME280;12420;42.676;23.262;2023-03-14T02:11:36;94646.16;;;2.88;84.83
12077;BME280;12420;42.676;23.262;2023-03-14T02:14:04;94599.84;;;2.64;83.42
12077;BME280;12420;42.676;23.262;2023-03-14T02:16:32;94600.16;;;2.87;84.27
12077;BME280;12420;42.676;23.262;2023-03-14T02:18:58;94624.25;;;3.03;84.87
12077;BME280;12420;42.676;23.262;2023-03-14T02:21:32;94639.66;;;3.21;85.63
12077;BME280;12420;42.676;23.262;2023-03-14T02:24:09;94653.56;;;3.23;84.54
12077;BME280;12420;42.676;23.262;2023-03-14T02:26:43;94646.25;;;2.94;85.44
12077;BME280;12420;42.676;23.262;2023-03-14T02:29:13;94577.28;;;2.84;84.83
12077;BME280;12420;42.676;23.262;2023-03-14T02:31:40;94574.69;;;2.75;85.12
12077;BME280;12420;42.676;23.262;2023-03-14T02:34:07;94655.84;;;3.24;85.80
12077;BME280;12420;42.676;23.262;2023-03-14T02:36:34;94528.88;;;2.14;84.80
12077;BME280;12420;42.676;23.262;2023-03-14T02:39:08;94643.63;;;2.85;85.42
12077;BME280;12420;42.676;23.262;2023-03-14T02:41:38;94574.69;;;2.39;85.78
12077;BME280;12420;42.676;23.262;2023-03-14T02:44:05;94623.41;;;2.61;86.40
12077;BME280;12420;42.676;23.262;2023-03-14T02:46:33;94656.72;;;2.45;87.25
12077;BME280;12420;42.676;23.262;2023-03-14T02:49:03;94646.13;;;2.68;87.53
12077;BME280;12420;42.676;23.262;2023-03-14T02:51:30;94558.94;;;1.99;87.71
12077;BME280;12420;42.676;23.262;2023-03-14T02:53:57;94652.41;;;2.74;87.37
12077;BME280;12420;42.676;23.262;2023-03-14T02:56:24;94523.38;;;1.79;85.06
12077;BME280;12420;42.676;23.262;2023-03-14T02:58:51;94585.66;;;1.95;85.89
12077;BME280;12420;42.676;23.262;2023-03-14T03:01:19;94650.94;;;2.73;86.72
12077;BME280;12420;42.676;23.262;2023-03-14T03:03:47;94699.63;;;2.74;85.95
12077;BME280;12420;42.676;23.262;2023-03-14T03:06:14;94575.09;;;2.03;85.56
12077;BME280;12420;42.676;23.262;2023-03-14T03:08:41;94657.28;;;2.85;86.07
12077;BME280;12420;42.676;23.262;2023-03-14T03:11:08;94579.78;;;2.32;85.60
12077;BME280;12420;42.676;23.262;2023-03-14T03:13:35;94637.22;;;2.52;86.20
12077;BME280;12420;42.676;23.262;2023-03-14T03:16:02;94533.72;;;1.89;85.42
12077;BME280;12420;42.676;23.262;2023-03-14T03:18:29;94631.78;;;2.73;85.93
12077;BME280;12420;42.676;23.262;2023-03-14T03:21:01;94577.81;;;2.32;86.66
12077;BME280;12420;42.676;23.262;2023-03-14T03:23:28;94645.50;;;2.93;86.39
12077;BME280;12420;42.676;23.262;2023-03-14T03:25:55;94654.06;;;3.01;86.01
12077;BME280;12420;42.676;23.262;2023-03-14T03:28:22;94598.47;;;2.54;85.42
12077;BME280;12420;42.676;23.262;2023-03-14T03:30:49;94612.66;;;2.23;86.55
12077;BME280;12420;42.676;23.262;2023-03-14T03:33:15;94613.56;;;2.85;86.25
12077;BME280;12420;42.676;23.262;2023-03-14T03:35:47;94647.22;;;3.11;85.92
12077;BME280;12420;42.676;23.262;2023-03-14T03:38:16;94650.28;;;2.98;86.38
12077;BME280;12420;42.676;23.262;2023-03-14T03:40:46;94634.50;;;2.88;86.88
12077;BME280;12420;42.676;23.262;2023-03-14T03:43:14;94682.59;;;3.00;87.25
12077;BME280;12420;42.676;23.262;2023-03-14T03:45:40;94616.25;;;2.64;87.31
12077;BME280;12420;42.676;23.262;2023-03-14T03:48:08;94674.03;;;2.92;86.97
12077;BME280;12420;42.676;23.262;2023-03-14T03:50:35;94660.50;;;2.83;88.43
12077;BME280;12420;42.676;23.262;2023-03-14T03:53:02;94615.91;;;2.42;88.14
12077;BME280;12420;42.676;23.262;2023-03-14T03:55:31;94630.78;;;2.70;89.38
12077;BME280;12420;42.676;23.262;2023-03-14T03:57:59;94654.59;;;3.05;89.00
12077;BME280;12420;42.676;23.262;2023-03-14T04:00:25;94661.75;;;3.02;88.31
12077;BME280;12420;42.676;23.262;2023-03-14T04:02:52;94635.63;;;2.81;88.95
12077;BME280;12420;42.676;23.262;2023-03-14T04:05:19;94646.16;;;2.88;88.68
12077;BME280;12420;42.676;23.262;2023-03-14T04:07:53;94638.59;;;2.63;88.09
12077;BME280;12420;42.676;23.262;2023-03-14T04:10:20;94662.19;;;2.95;88.40
12077;BME280;12420;42.676;23.262;2023-03-14T04:12:49;94658.88;;;2.91;89.37
12077;BME280;12420;42.676;23.262;2023-03-14T04:15:16;94615.72;;;2.60;89.23
12077;BME280;12420;42.676;23.262;2023-03-14T04:17:44;94487.25;;;1.54;90.14
12077;BME280;12420;42.676;23.262;2023-03-14T04:20:13;94646.59;;;2.66;90.68
12077;BME280;12420;42.676;23.262;2023-03-14T04:22:43;94640.59;;;2.62;91.63
12077;BME280;12420;42.676;23.262;2023-03-14T04:25:10;94592.81;;;1.92;90.87
12077;BME280;12420;42.676;23.262;2023-03-14T04:27:37;94544.09;;;1.56;91.94
12077;BME280;12420;42.676;23.262;2023-03-14T04:30:06;94567.94;;;2.05;90.70
12077;BME280;12420;42.676;23.262;2023-03-14T04:32:33;94616.13;;;2.38;89.64
12077;BME280;12420;42.676;23.262;2023-03-14T04:35:00;94643.59;;;2.49;90.15
12077;BME280;12420;42.676;23.262;2023-03-14T04:37:27;94590.44;;;2.15;90.69
12077;BME280;12420;42.676;23.262;2023-03-14T04:39:54;94651.72;;;2.44;91.12
12077;BME280;12420;42.676;23.262;2023-03-14T04:42:21;94610.94;;;2.40;91.58
12077;BME280;12420;42.676;23.262;2023-03-14T04:44:48;94614.28;;;2.14;92.68
12077;BME280;12420;42.676;23.262;2023-03-14T04:47:17;94626.47;;;2.49;91.04
12077;BME280;12420;42.676;23.262;2023-03-14T04:49:44;94647.78;;;2.30;92.23
12077;BME280;12420;42.676;23.262;2023-03-14T04:52:11;94416.72;;;1.32;91.23
12077;BME280;12420;42.676;23.262;2023-03-14T04:54:38;94564.63;;;2.31;90.99
12077;BME280;12420;42.676;23.262;2023-03-14T04:57:04;94539.41;;;2.21;91.02
12077;BME280;12420;42.676;23.262;2023-03-14T04:59:34;94534.44;;;2.20;90.57
12077;BME280;12420;42.676;23.262;2023-03-14T05:02:00;94412.22;;;1.44;90.24
12077;BME280;12420;42.676;23.262;2023-03-14T05:04:36;94599.28;;;2.75;89.93
12077;BME280;12420;42.676;23.262;2023-03-14T05:07:11;94525.94;;;2.17;90.44
12077;BME280;12420;42.676;23.262;2023-03-14T05:09:40;94485.53;;;1.86;90.92
12077;BME280;12420;42.676;23.262;2023-03-14T05:12:08;94524.63;;;2.13;91.35
12077;BME280;12420;42.676;23.262;2023-03-14T05:14:35;94656.69;;;2.75;92.04
12077;BME280;12420;42.676;23.262;2023-03-14T05:17:05;94614.00;;;2.63;91.80
12077;BME280;12420;42.676;23.262;2023-03-14T05:19:32;94609.22;;;2.57;89.84
12077;BME280;12420;42.676;23.262;2023-03-14T05:22:02;94473.31;;;1.67;88.10
12077;BME280;12420;42.676;23.262;2023-03-14T05:24:31;94406.16;;;1.69;88.10
12077;BME280;12420;42.676;23.262;2023-03-14T05:26:58;94480.81;;;2.02;87.92
12077;BME280;12420;42.676;23.262;2023-03-14T05:29:25;94460.91;;;2.36;84.45
12077;BME280;12420;42.676;23.262;2023-03-14T05:31:55;94528.06;;;3.04;83.18
12077;BME280;12420;42.676;23.262;2023-03-14T05:34:22;94615.97;;;3.59;82.26
12077;BME280;12420;42.676;23.262;2023-03-14T05:36:49;94571.16;;;3.36;82.55
12077;BME280;12420;42.676;23.262;2023-03-14T05:39:18;94594.31;;;3.61;81.71
12077;BME280;12420;42.676;23.262;2023-03-14T05:41:47;94542.91;;;3.44;81.87
12077;BME280;12420;42.676;23.262;2023-03-14T05:44:15;94386.81;;;2.70;81.25
12077;BME280;12420;42.676;23.262;2023-03-14T05:46:42;94611.50;;;4.13;80.26
12077;BME280;12420;42.676;23.262;2023-03-14T05:49:09;94417.19;;;3.30;78.84
12077;BME280;12420;42.676;23.262;2023-03-14T05:51:36;94596.72;;;4.69;77.96
12077;BME280;12420;42.676;23.262;2023-03-14T05:54:03;94584.06;;;4.77;74.62
12077;BME280;12420;42.676;23.262;2023-03-14T05:56:33;94625.09;;;5.03;75.31
12077;BME280;12420;42.676;23.262;2023-03-14T05:59:00;94478.94;;;3.68;72.00
12077;BME280;12420;42.676;23.262;2023-03-14T06:01:29;94427.56;;;3.52;70.79
12077;BME280;12420;42.676;23.262;2023-03-14T06:03:56;94575.94;;;4.51;70.95
12077;BME280;12420;42.676;23.262;2023-03-14T06:06:25;94607.19;;;5.19;69.25
12077;BME280;12420;42.676;23.262;2023-03-14T06:08:52;94481.47;;;4.03;69.71
12077;BME280;12420;42.676;23.262;2023-03-14T06:11:19;94579.75;;;5.13;68.29
12077;BME280;12420;42.676;23.262;2023-03-14T06:13:48;94497.72;;;4.55;67.36
12077;BME280;12420;42.676;23.262;2023-03-14T06:16:15;94445.84;;;4.03;67.65
12077;BME280;12420;42.676;23.262;2023-03-14T06:18:42;94540.00;;;4.43;68.43
12077;BME280;12420;42.676;23.262;2023-03-14T06:21:12;94588.09;;;4.87;70.17
12077;BME280;12420;42.676;23.262;2023-03-14T06:23:40;94531.97;;;4.77;68.60
12077;BME280;12420;42.676;23.262;2023-03-14T06:26:07;94466.22;;;4.40;70.18
12077;BME280;12420;42.676;23.262;2023-03-14T06:28:37;94598.09;;;5.44;67.21
12077;BME280;12420;42.676;23.262;2023-03-14T06:31:05;94439.41;;;4.55;65.27
12077;BME280;12420;42.676;23.262;2023-03-14T06:33:32;94465.28;;;4.43;66.70
12077;BME280;12420;42.676;23.262;2023-03-14T06:36:01;94429.97;;;4.67;66.90
12077;BME280;12420;42.676;23.262;2023-03-14T06:38:28;94459.91;;;4.71;64.89
12077;BME280;12420;42.676;23.262;2023-03-14T06:41:13;94442.50;;;4.79;63.60
12077;BME280;12420;42.676;23.262;2023-03-14T06:43:50;94448.97;;;4.82;64.85
12077;BME280;12420;42.676;23.262;2023-03-14T06:46:23;94453.13;;;5.32;63.58
12077;BME280;12420;42.676;23.262;2023-03-14T06:48:54;94613.53;;;6.41;62.51
12077;BME280;12420;42.676;23.262;2023-03-14T06:51:26;94566.06;;;6.18;62.63
12077;BME280;12420;42.676;23.262;2023-03-14T06:53:54;94511.03;;;5.90;62.58
12077;BME280;12420;42.676;23.262;2023-03-14T06:56:21;94462.31;;;5.17;63.42
12077;BME280;12420;42.676;23.262;2023-03-14T06:58:48;94492.09;;;5.86;64.48
12077;BME280;12420;42.676;23.262;2023-03-14T07:01:21;94603.53;;;6.44;63.79
12077;BME280;12420;42.676;23.262;2023-03-14T07:03:49;94525.75;;;5.64;63.19
12077;BME280;12420;42.676;23.262;2023-03-14T07:06:19;94409.91;;;5.10;63.10
12077;BME280;12420;42.676;23.262;2023-03-14T07:08:46;94416.16;;;5.16;62.46
12077;BME280;12420;42.676;23.262;2023-03-14T07:11:13;94387.47;;;5.34;62.88
12077;BME280;12420;42.676;23.262;2023-03-14T07:13:42;94436.91;;;5.56;62.59
12077;BME280;12420;42.676;23.262;2023-03-14T07:16:09;94507.84;;;5.97;61.33
12077;BME280;12420;42.676;23.262;2023-03-14T07:18:38;94397.47;;;5.37;62.12
12077;BME280;12420;42.676;23.262;2023-03-14T07:21:08;94450.84;;;5.36;61.90
12077;BME280;12420;42.676;23.262;2023-03-14T07:23:35;94563.50;;;5.92;62.78
12077;BME280;12420;42.676;23.262;2023-03-14T07:26:02;94398.22;;;5.49;62.10
12077;BME280;12420;42.676;23.262;2023-03-14T07:28:29;94383.25;;;5.55;62.47
12077;BME280;12420;42.676;23.262;2023-03-14T07:30:56;94423.44;;;5.47;64.40
12077;BME280;12420;42.676;23.262;2023-03-14T07:33:24;94395.47;;;5.71;63.63
12077;BME280;12420;42.676;23.262;2023-03-14T07:35:52;94530.03;;;6.50;62.68
12077;BME280;12420;42.676;23.262;2023-03-14T07:38:20;94428.41;;;6.11;61.00
12077;BME280;12420;42.676;23.262;2023-03-14T07:40:47;94448.91;;;5.98;61.88
12077;BME280;12420;42.676;23.262;2023-03-14T07:43:17;94506.53;;;6.55;60.67
12077;BME280;12420;42.676;23.262;2023-03-14T07:45:45;94374.16;;;6.28;59.67
12077;BME280;12420;42.676;23.262;2023-03-14T07:48:14;94562.13;;;7.17;59.30
12077;BME280;12420;42.676;23.262;2023-03-14T07:50:41;94465.75;;;6.70;58.33
12077;BME280;12420;42.676;23.262;2023-03-14T07:53:09;94555.16;;;8.04;58.36
12077;BME280;12420;42.676;23.262;2023-03-14T07:55:36;94556.88;;;8.08;57.41
12077;BME280;12420;42.676;23.262;2023-03-14T07:58:02;94550.69;;;7.96;57.78
12077;BME280;12420;42.676;23.262;2023-03-14T08:00:29;94545.44;;;7.98;58.20
12077;BME280;12420;42.676;23.262;2023-03-14T08:02:56;94587.06;;;7.94;57.86
12077;BME280;12420;42.676;23.262;2023-03-14T08:05:23;94543.91;;;8.33;58.87
12077;BME280;12420;42.676;23.262;2023-03-14T08:07:51;94539.44;;;8.30;58.71
12077;BME280;12420;42.676;23.262;2023-03-14T08:10:19;94539.34;;;8.41;57.48
12077;BME280;12420;42.676;23.262;2023-03-14T08:12:49;94469.72;;;8.04;58.41
12077;BME280;12420;42.676;23.262;2023-03-14T08:15:16;94479.38;;;8.17;55.79
12077;BME280;12420;42.676;23.262;2023-03-14T08:17:43;94520.97;;;8.49;55.32
12077;BME280;12420;42.676;23.262;2023-03-14T08:20:10;94530.31;;;8.71;55.37
12077;BME280;12420;42.676;23.262;2023-03-14T08:22:38;94519.44;;;8.54;54.25
12077;BME280;12420;42.676;23.262;2023-03-14T08:25:05;94501.53;;;8.36;56.12
12077;BME280;12420;42.676;23.262;2023-03-14T08:27:34;94537.44;;;8.60;55.50
12077;BME280;12420;42.676;23.262;2023-03-14T08:30:04;94539.16;;;8.63;53.63
12077;BME280;12420;42.676;23.262;2023-03-14T08:32:30;94537.56;;;8.74;54.16
12077;BME280;12420;42.676;23.262;2023-03-14T08:34:57;94515.47;;;8.49;54.35
12077;BME280;12420;42.676;23.262;2023-03-14T08:37:24;94501.66;;;8.49;53.96
12077;BME280;12420;42.676;23.262;2023-03-14T08:39:51;94470.16;;;8.39;54.46
12077;BME280;12420;42.676;23.262;2023-03-14T08:42:18;94503.22;;;8.69;54.46
12077;BME280;12420;42.676;23.262;2023-03-14T08:44:48;94521.00;;;8.74;53.51
12077;BME280;12420;42.676;23.262;2023-03-14T08:47:16;94518.66;;;9.02;54.26
12077;BME280;12420;42.676;23.262;2023-03-14T08:49:48;94507.94;;;9.18;52.90
12077;BME280;12420;42.676;23.262;2023-03-14T08:52:18;94437.50;;;8.92;53.71
12077;BME280;12420;42.676;23.262;2023-03-14T08:54:46;94425.75;;;8.67;52.90
12077;BME280;12420;42.676;23.262;2023-03-14T08:57:15;94369.66;;;8.34;52.13
12077;BME280;12420;42.676;23.262;2023-03-14T08:59:42;94358.13;;;8.60;50.43
12077;BME280;12420;42.676;23.262;2023-03-14T09:02:14;94449.13;;;9.61;51.19
12077;BME280;12420;42.676;23.262;2023-03-14T09:04:41;94481.78;;;9.94;49.42
12077;BME280;12420;42.676;23.262;2023-03-14T09:07:08;94322.78;;;8.78;49.05
12077;BME280;12420;42.676;23.262;2023-03-14T09:09:38;94466.63;;;10.14;48.63
12077;BME280;12420;42.676;23.262;2023-03-14T09:12:05;94342.38;;;9.12;47.85
12077;BME280;12420;42.676;23.262;2023-03-14T09:14:32;94271.88;;;8.92;48.15
12077;BME280;12420;42.676;23.262;2023-03-14T09:16:59;94456.75;;;10.19;48.27
12077;BME280;12420;42.676;23.262;2023-03-14T09:19:28;94450.00;;;10.33;48.27
12077;BME280;12420;42.676;23.262;2023-03-14T09:21:59;94284.34;;;9.31;47.32
12077;BME280;12420;42.676;23.262;2023-03-14T09:24:27;94308.31;;;9.55;45.17
12077;BME280;12420;42.676;23.262;2023-03-14T09:26:54;94337.69;;;9.39;45.96
12077;BME280;12420;42.676;23.262;2023-03-14T09:29:23;94332.06;;;9.77;45.51
12077;BME280;12420;42.676;23.262;2023-03-14T09:31:51;94409.88;;;10.40;45.71
12077;BME280;12420;42.676;23.262;2023-03-14T09:34:18;94411.41;;;10.54;45.26
12077;BME280;12420;42.676;23.262;2023-03-14T09:36:46;94325.34;;;9.72;44.37
12077;BME280;12420;42.676;23.262;2023-03-14T09:39:13;94389.13;;;10.60;44.72
12077;BME280;12420;42.676;23.262;2023-03-14T09:41:43;94299.88;;;9.93;44.54
12077;BME280;12420;42.676;23.262;2023-03-14T09:44:13;94355.06;;;10.25;44.56
12077;BME280;12420;42.676;23.262;2023-03-14T09:46:43;94407.13;;;10.80;44.52
12077;BME280;12420;42.676;23.262;2023-03-14T09:49:18;94377.88;;;10.71;44.13
12077;BME280;12420;42.676;23.262;2023-03-14T09:51:52;94321.56;;;10.55;44.14
12077;BME280;12420;42.676;23.262;2023-03-14T09:54:30;94391.31;;;11.15;44.03
12077;BME280;12420;42.676;23.262;2023-03-14T09:56:58;94391.63;;;11.11;45.51
12077;BME280;12420;42.676;23.262;2023-03-14T09:59:25;94266.75;;;10.40;45.30
12077;BME280;12420;42.676;23.262;2023-03-14T10:01:55;94316.78;;;10.56;43.75
12077;BME280;12420;42.676;23.262;2023-03-14T10:04:22;94356.41;;;11.33;44.34
12077;BME280;12420;42.676;23.262;2023-03-14T10:06:51;94326.31;;;11.16;42.44
12077;BME280;12420;42.676;23.262;2023-03-14T10:09:20;94298.50;;;10.87;42.35
12077;BME280;12420;42.676;23.262;2023-03-14T10:11:53;94259.69;;;11.00;42.06
12077;BME280;12420;42.676;23.262;2023-03-14T10:14:32;94378.38;;;11.72;43.61
12077;BME280;12420;42.676;23.262;2023-03-14T10:17:10;94348.50;;;11.79;42.60
12077;BME280;12420;42.676;23.262;2023-03-14T10:19:37;94322.41;;;11.32;44.33
12077;BME280;12420;42.676;23.262;2023-03-14T10:22:19;94347.22;;;12.01;42.92
12077;BME280;12420;42.676;23.262;2023-03-14T10:24:52;94340.78;;;11.85;42.05
12077;BME280;12420;42.676;23.262;2023-03-14T10:27:21;94323.16;;;11.95;42.80
12077;BME280;12420;42.676;23.262;2023-03-14T10:29:53;94202.19;;;11.14;42.00
12077;BME280;12420;42.676;23.262;2023-03-14T10:32:28;94207.59;;;11.69;41.23
12077;BME280;12420;42.676;23.262;2023-03-14T10:35:19;94295.16;;;12.43;41.28
12077;BME280;12420;42.676;23.262;2023-03-14T10:37:53;94260.00;;;12.09;42.02
12077;BME280;12420;42.676;23.262;2023-03-14T10:40:26;94284.78;;;12.44;41.73
12077;BME280;12420;42.676;23.262;2023-03-14T10:42:54;94318.31;;;12.53;40.24
12077;BME280;12420;42.676;23.262;2023-03-14T10:45:33;94294.13;;;12.62;39.50
12077;BME280;12420;42.676;23.262;2023-03-14T10:48:15;94178.66;;;12.14;39.97
12077;BME280;12420;42.676;23.262;2023-03-14T10:50:48;94165.50;;;12.07;39.68
12077;BME280;12420;42.676;23.262;2023-03-14T10:53:17;94163.25;;;12.06;40.29
12077;BME280;12420;42.676;23.262;2023-03-14T10:55:45;94251.44;;;12.80;40.54
12077;BME280;12420;42.676;23.262;2023-03-14T10:58:20;94250.50;;;12.77;41.98
12077;BME280;12420;42.676;23.262;2023-03-14T11:01:06;94241.81;;;12.89;41.02
12077;BME280;12420;42.676;23.262;2023-03-14T11:03:45;94082.66;;;11.67;41.16
12077;BME280;12420;42.676;23.262;2023-03-14T11:06:19;94148.19;;;12.30;41.41
12077;BME280;12420;42.676;23.262;2023-03-14T11:08:53;94103.22;;;11.80;41.94
12077;BME280;12420;42.676;23.262;2023-03-14T11:11:24;94086.03;;;11.73;42.33
12077;BME280;12420;42.676;23.262;2023-03-14T11:14:02;94127.06;;;12.11;42.90
12077;BME280;12420;42.676;23.262;2023-03-14T11:16:45;94246.88;;;13.06;41.66
12077;BME280;12420;42.676;23.262;2023-03-14T11:19:28;94191.13;;;13.19;41.56
12077;BME280;12420;42.676;23.262;2023-03-14T11:22:04;94076.78;;;12.30;41.92
12077;BME280;12420;42.676;23.262;2023-03-14T11:24:44;94112.94;;;12.92;42.44
12077;BME280;12420;42.676;23.262;2023-03-14T11:27:17;94117.75;;;13.07;42.50
12077;BME280;12420;42.676;23.262;2023-03-14T11:29:54;94046.28;;;12.53;42.19
12077;BME280;12420;42.676;23.262;2023-03-14T11:32:46;94032.06;;;12.57;42.38
12077;BME280;12420;42.676;23.262;2023-03-14T11:35:27;94160.03;;;13.43;42.12
12077;BME280;12420;42.676;23.262;2023-03-14T11:38:01;94062.22;;;12.76;41.67
12077;BME280;12420;42.676;23.262;2023-03-14T11:40:37;94060.16;;;12.99;42.02
12077;BME280;12420;42.676;23.262;2023-03-14T11:43:11;94035.19;;;12.61;42.69
12077;BME280;12420;42.676;23.262;2023-03-14T11:45:42;94192.41;;;13.79;42.66
12077;BME280;12420;42.676;23.262;2023-03-14T11:48:27;94096.41;;;13.63;42.25
12077;BME280;12420;42.676;23.262;2023-03-14T11:51:22;94191.78;;;14.04;42.87
12077;BME280;12420;42.676;23.262;2023-03-14T11:53:59;94168.22;;;14.05;42.28
12077;BME280;12420;42.676;23.262;2023-03-14T11:56:47;94084.50;;;13.70;41.12
12077;BME280;12420;42.676;23.262;2023-03-14T11:59:23;94023.06;;;13.35;42.89
12077;BME280;12420;42.676;23.262;2023-03-14T12:01:54;93994.59;;;13.04;41.59
12077;BME280;12420;42.676;23.262;2023-03-14T12:04:39;94106.59;;;14.16;42.10
12077;BME280;12420;42.676;23.262;2023-03-14T12:07:14;93993.44;;;13.22;42.03
12077;BME280;12420;42.676;23.262;2023-03-14T12:09:45;94038.44;;;13.52;42.22
12077;BME280;12420;42.676;23.262;2023-03-14T12:12:18;94025.84;;;13.35;42.49
12077;BME280;12420;42.676;23.262;2023-03-14T12:14:54;93972.00;;;13.15;41.82
12077;BME280;12420;42.676;23.262;2023-03-14T12:17:26;94044.28;;;14.11;41.61
12077;BME280;12420;42.676;23.262;2023-03-14T12:20:02;94074.88;;;14.44;40.87
12077;BME280;12420;42.676;23.262;2023-03-14T12:22:35;93988.53;;;13.61;40.50
12077;BME280;12420;42.676;23.262;2023-03-14T12:25:06;94009.38;;;14.18;39.75
12077;BME280;12420;42.676;23.262;2023-03-14T12:30:33;94022.50;;;14.25;40.92
12077;BME280;12420;42.676;23.262;2023-03-14T12:33:29;93946.53;;;13.82;40.05
12077;BME280;12420;42.676;23.262;2023-03-14T12:39:16;94060.03;;;14.74;39.25
12077;BME280;12420;42.676;23.262;2023-03-14T12:41:51;93880.25;;;13.63;38.86
12077;BME280;12420;42.676;23.262;2023-03-14T12:44:42;94029.97;;;14.73;38.91
12077;BME280;12420;42.676;23.262;2023-03-14T12:47:45;93901.81;;;13.55;39.59
12077;BME280;12420;42.676;23.262;2023-03-14T12:50:24;94015.59;;;14.84;39.56
12077;BME280;12420;42.676;23.262;2023-03-14T12:53:20;93876.31;;;13.74;38.51
12077;BME280;12420;42.676;23.262;2023-03-14T12:56:03;93898.50;;;13.82;39.37
12077;BME280;12420;42.676;23.262;2023-03-14T12:58:41;94020.00;;;14.87;38.44
12077;BME280;12420;42.676;23.262;2023-03-14T13:01:20;93852.81;;;13.93;38.78
12077;BME280;12420;42.676;23.262;2023-03-14T13:03:51;93983.75;;;15.12;38.64
12077;BME280;12420;42.676;23.262;2023-03-14T13:06:45;93985.47;;;15.25;38.37
12077;BME280;12420;42.676;23.262;2023-03-14T13:12:28;93866.66;;;14.43;37.89
12077;BME280;12420;42.676;23.262;2023-03-14T13:14:59;93886.28;;;14.87;37.35
12077;BME280;12420;42.676;23.262;2023-03-14T13:17:40;93981.19;;;15.07;36.90
12077;BME280;12420;42.676;23.262;2023-03-14T13:20:28;93955.84;;;15.47;36.66
12077;BME280;12420;42.676;23.262;2023-03-14T13:22:56;93862.09;;;14.72;36.25